Time;durP1;ratioP1;P1;durP2;ratioP2;P2;SDS_P1;SDS_P2;PMS_P1;PMS_P2;Temp;Humidity;BMP_temperature;BMP_pressure;BME280_temperature;BME280_humidity;BME280_pressure;Samples;Min_cycle;Max_cycle;Signal;HPM_P1;HPM_P2
2021/12/07 00:00:41;;;;;;;14.20;9.57;;;;;;;;;;5037576;28;20048;-64
2021/12/07 00:03:08;;;;;;;12.77;9.35;;;;;;;;;;5043991;28;20048;-64
2021/12/07 00:05:35;;;;;;;15.80;8.90;;;;;;;;;;5042668;28;20395;-64
2021/12/07 00:08:01;;;;;;;13.55;9.75;;;;;;;;;;5057567;28;20499;-64
2021/12/07 00:10:28;;;;;;;15.57;10.32;;;;;;;;;;5051334;28;20072;-64
2021/12/07 00:12:55;;;;;;;16.73;10.30;;;;;;;;;;5037461;28;20056;-64
2021/12/07 00:15:23;;;;;;;22.30;10.85;;;;;;;;;;5048324;28;20099;-64
2021/12/07 00:17:51;;;;;;;18.05;10.98;;;;;;;;;;5056015;28;20510;-64
2021/12/07 00:20:19;;;;;;;17.25;10.38;;;;;;;;;;5057180;28;20052;-64
2021/12/07 00:22:47;;;;;;;17.08;10.18;;;;;;;;;;5057267;28;20048;-65
2021/12/07 00:25:15;;;;;;;22.88;10.40;;;;;;;;;;5046733;28;20038;-64
2021/12/07 00:27:41;;;;;;;23.10;10.73;;;;;;;;;;5037136;28;20115;-64
2021/12/07 00:30:10;;;;;;;17.70;10.30;;;;;;;;;;5052496;28;20125;-64
2021/12/07 00:32:42;;;;;;;17.90;9.57;;;;;;;;;;5036078;28;20038;-65
2021/12/07 00:37:45;;;;;;;20.20;8.90;;;;;;;;;;5036666;28;20336;-64
2021/12/07 00:40:13;;;;;;;22.25;8.18;;;;;;;;;;5036841;28;20042;-65
2021/12/07 00:42:40;;;;;;;23.73;8.68;;;;;;;;;;5036922;28;20382;-65
2021/12/07 00:45:08;;;;;;;21.00;8.57;;;;;;;;;;5036843;28;20072;-64
2021/12/07 00:47:35;;;;;;;16.40;6.90;;;;;;;;;;5036717;28;20049;-65
2021/12/07 00:50:02;;;;;;;10.55;6.75;;;;;;;;;;5036732;28;20049;-64
2021/12/07 00:52:29;;;;;;;13.32;6.53;;;;;;;;;;5036623;28;20446;-64
2021/12/07 00:54:55;;;;;;;18.10;7.43;;;;;;;;;;5052084;28;20053;-64
2021/12/07 00:57:25;;;;;;;10.68;6.65;;;;;;;;;;5019009;28;20041;-65
2021/12/07 00:59:51;;;;;;;27.05;6.63;;;;;;;;;;5036003;28;20405;-65
2021/12/07 01:02:19;;;;;;;10.90;6.35;;;;;;;;;;5051674;28;20421;-65
2021/12/07 01:04:52;;;;;;;18.50;7.35;;;;;;;;;;5051913;28;20052;-65
2021/12/07 01:07:48;;;;;;;16.85;7.72;;;;;;;;;;5036339;28;20046;-63
2021/12/07 01:26:23;;;;;;;21.23;10.07;;;;;;;;;;5036001;28;20045;-65
2021/12/07 01:28:50;;;;;;;19.52;9.70;;;;;;;;;;5035048;28;20045;-65
2021/12/07 01:31:31;;;;;;;16.67;7.70;;;;;;;;;;5018593;28;20038;-64
2021/12/07 01:44:42;;;;;;;20.48;5.68;;;;;;;;;;5051275;28;20095;-65
2021/12/07 01:47:28;;;;;;;25.25;5.68;;;;;;;;;;5051134;28;20049;-64
2021/12/07 02:00:32;;;;;;;20.38;5.13;;;;;;;;;;5034280;28;20132;-65
2021/12/07 02:02:59;;;;;;;25.33;5.82;;;;;;;;;;5035427;28;20104;-65
2021/12/07 02:05:26;;;;;;;17.33;5.82;;;;;;;;;;5030595;28;20046;-64
2021/12/07 02:07:53;;;;;;;19.45;5.47;;;;;;;;;;5050647;28;20427;-63
2021/12/07 02:10:25;;;;;;;18.83;5.25;;;;;;;;;;5030877;28;20140;-66
2021/12/07 02:13:03;;;;;;;18.88;4.75;;;;;;;;;;5039821;28;20052;-65
2021/12/07 02:15:31;;;;;;;21.35;5.72;;;;;;;;;;5034475;28;20072;-66
2021/12/07 02:17:57;;;;;;;24.60;4.63;;;;;;;;;;5034950;28;20041;-66
2021/12/07 02:20:26;;;;;;;17.67;5.63;;;;;;;;;;5035396;28;20041;-67
2021/12/07 02:22:53;;;;;;;18.90;4.85;;;;;;;;;;5035143;28;20068;-65
2021/12/07 02:25:20;;;;;;;15.90;5.30;;;;;;;;;;5050572;28;20041;-64
2021/12/07 02:27:47;;;;;;;20.63;4.75;;;;;;;;;;5050564;28;20454;-63
2021/12/07 02:30:17;;;;;;;24.92;5.45;;;;;;;;;;5035197;28;20041;-65
2021/12/07 02:32:44;;;;;;;23.38;6.03;;;;;;;;;;5050514;28;20053;-66
2021/12/07 02:35:21;;;;;;;17.80;4.90;;;;;;;;;;5050509;28;20069;-66
2021/12/07 02:37:52;;;;;;;16.00;4.88;;;;;;;;;;5033546;28;20064;-66
2021/12/07 02:40:19;;;;;;;20.48;5.35;;;;;;;;;;5017640;28;20394;-65
2021/12/07 02:42:46;;;;;;;17.20;4.15;;;;;;;;;;5050399;28;20042;-67
2021/12/07 02:45:13;;;;;;;11.35;4.07;;;;;;;;;;5035026;28;20041;-66
2021/12/07 02:47:40;;;;;;;14.95;3.75;;;;;;;;;;5050409;28;20055;-66
2021/12/07 02:50:09;;;;;;;15.52;3.75;;;;;;;;;;5033918;28;20057;-66
2021/12/07 02:52:36;;;;;;;15.55;4.15;;;;;;;;;;5017422;28;20053;-66
2021/12/07 02:55:06;;;;;;;22.67;4.28;;;;;;;;;;5033783;28;20053;-66
2021/12/07 02:57:34;;;;;;;17.00;4.55;;;;;;;;;;5033921;28;20057;-67
2021/12/07 03:00:10;;;;;;;13.18;3.80;;;;;;;;;;5033762;28;20120;-65
2021/12/07 03:02:44;;;;;;;18.02;3.90;;;;;;;;;;5033684;28;20041;-65
2021/12/07 03:05:35;;;;;;;17.80;4.55;;;;;;;;;;5033575;28;20050;-67
2021/12/07 03:27:30;;;;;;;24.30;6.53;;;;;;;;;;5053897;28;20053;-66
2021/12/07 03:29:57;;;;;;;27.77;5.88;;;;;;;;;;5020839;28;20415;-66
2021/12/07 03:32:24;;;;;;;18.83;6.15;;;;;;;;;;5054002;28;20496;-65
2021/12/07 03:34:51;;;;;;;21.50;5.05;;;;;;;;;;5053566;28;20052;-65
2021/12/07 03:37:18;;;;;;;17.80;6.22;;;;;;;;;;5053259;28;20529;-65
2021/12/07 03:39:45;;;;;;;19.98;4.78;;;;;;;;;;5053640;28;20132;-65
2021/12/07 03:42:11;;;;;;;16.42;5.30;;;;;;;;;;5053531;28;20045;-66
2021/12/07 03:44:38;;;;;;;18.48;5.00;;;;;;;;;;5053384;28;20133;-66
2021/12/07 03:47:05;;;;;;;21.25;5.28;;;;;;;;;;5037961;28;20092;-65
2021/12/07 03:49:32;;;;;;;13.27;3.95;;;;;;;;;;5053346;28;20053;-67
2021/12/07 03:51:59;;;;;;;17.30;5.15;;;;;;;;;;5020386;28;20050;-65
2021/12/07 03:54:28;;;;;;;19.52;4.57;;;;;;;;;;5053258;28;20058;-64
2021/12/07 03:56:55;;;;;;;19.30;4.15;;;;;;;;;;5053247;28;20404;-64
2021/12/07 03:59:22;;;;;;;19.83;4.50;;;;;;;;;;5020193;28;20132;-66
2021/12/07 04:01:51;;;;;;;21.05;4.85;;;;;;;;;;5053179;28;20447;-67
2021/12/07 04:04:19;;;;;;;13.77;4.13;;;;;;;;;;5020471;28;20041;-65
2021/12/07 04:06:46;;;;;;;18.00;4.38;;;;;;;;;;5037620;28;20112;-66
2021/12/07 04:09:13;;;;;;;13.45;4.13;;;;;;;;;;5036302;28;20541;-65
2021/12/07 04:11:40;;;;;;;15.38;3.92;;;;;;;;;;5036311;28;20046;-67
2021/12/07 04:14:07;;;;;;;23.05;4.38;;;;;;;;;;5037320;28;20064;-67
2021/12/07 04:16:34;;;;;;;15.63;4.07;;;;;;;;;;5036309;28;20045;-64
2021/12/07 04:19:02;;;;;;;17.17;4.07;;;;;;;;;;5036019;28;20439;-65
2021/12/07 04:21:30;;;;;;;20.10;3.80;;;;;;;;;;5052681;28;20041;-66
2021/12/07 04:23:56;;;;;;;18.17;4.55;;;;;;;;;;5037238;28;20477;-65
2021/12/07 04:26:24;;;;;;;17.92;3.95;;;;;;;;;;5036193;28;20056;-66
2021/12/07 04:28:51;;;;;;;15.43;5.15;;;;;;;;;;5037099;28;20042;-66
2021/12/07 04:31:19;;;;;;;15.68;3.78;;;;;;;;;;5037209;28;20103;-65
2021/12/07 04:33:46;;;;;;;10.55;4.45;;;;;;;;;;5037185;28;20443;-65
2021/12/07 04:36:13;;;;;;;18.27;5.10;;;;;;;;;;5036825;28;20316;-65
2021/12/07 04:38:40;;;;;;;15.23;4.07;;;;;;;;;;5036894;28;20046;-67
2021/12/07 04:41:08;;;;;;;15.25;4.38;;;;;;;;;;5036973;28;20108;-68
2021/12/07 04:43:36;;;;;;;17.83;4.95;;;;;;;;;;5035883;28;20075;-65
2021/12/07 04:46:31;;;;;;;19.27;5.30;;;;;;;;;;5036894;28;20446;-66
2021/12/07 05:00:03;;;;;;;19.77;4.53;;;;;;;;;;5036546;28;20111;-65
2021/12/07 05:02:31;;;;;;;24.83;4.88;;;;;;;;;;5036872;28;20335;-67
2021/12/07 05:04:58;;;;;;;19.10;4.47;;;;;;;;;;5036466;28;20121;-67
2021/12/07 05:07:36;;;;;;;12.93;3.72;;;;;;;;;;5036484;28;20049;-65
2021/12/07 05:10:17;;;;;;;14.93;4.25;;;;;;;;;;5035298;28;20064;-67
2021/12/07 05:15:58;;;;;;;11.15;3.35;;;;;;;;;;5035167;28;20065;-67
2021/12/07 05:18:39;;;;;;;14.25;3.58;;;;;;;;;;5036206;28;20071;-67
2021/12/07 05:24:16;;;;;;;8.95;3.60;;;;;;;;;;5036032;28;20049;-65
2021/12/07 05:37:57;;;;;;;13.98;3.78;;;;;;;;;;5035709;28;20147;-66
2021/12/07 05:40:25;;;;;;;22.55;3.83;;;;;;;;;;5035838;28;20056;-67
2021/12/07 05:42:52;;;;;;;17.83;3.70;;;;;;;;;;5035868;28;20095;-67
2021/12/07 05:45:24;;;;;;;20.83;3.72;;;;;;;;;;5032920;28;20038;-68
2021/12/07 05:47:51;;;;;;;12.05;3.30;;;;;;;;;;5035206;28;20050;-67
2021/12/07 05:50:20;;;;;;;12.25;3.05;;;;;;;;;;5032977;28;20053;-67
2021/12/07 05:52:47;;;;;;;18.58;3.38;;;;;;;;;;5014914;28;20049;-65
2021/12/07 05:55:14;;;;;;;18.13;2.80;;;;;;;;;;5017508;28;20108;-66
2021/12/07 05:57:40;;;;;;;14.02;3.22;;;;;;;;;;5035527;28;20099;-65
2021/12/07 06:00:09;;;;;;;18.20;4.65;;;;;;;;;;5034094;28;20049;-65
2021/12/07 06:02:40;;;;;;;15.55;4.45;;;;;;;;;;5033082;28;20041;-68
2021/12/07 06:05:07;;;;;;;13.90;2.83;;;;;;;;;;5034076;28;20045;-66
2021/12/07 06:07:34;;;;;;;23.02;3.35;;;;;;;;;;5015672;28;20046;-67
2021/12/07 06:10:00;;;;;;;16.88;3.13;;;;;;;;;;5015593;28;20053;-66
2021/12/07 06:12:27;;;;;;;11.40;2.72;;;;;;;;;;5050617;28;20049;-65
2021/12/07 06:14:55;;;;;;;17.92;3.17;;;;;;;;;;5033020;28;20049;-66
2021/12/07 06:17:22;;;;;;;29.23;3.88;;;;;;;;;;5027869;28;20081;-64
2021/12/07 06:19:49;;;;;;;21.02;3.60;;;;;;;;;;5021365;28;20046;-62
2021/12/07 06:22:16;;;;;;;24.13;3.92;;;;;;;;;;5028804;28;20041;-62
2021/12/07 06:24:43;;;;;;;15.63;3.17;;;;;;;;;;5047711;28;20065;-65
2021/12/07 06:27:10;;;;;;;19.42;3.38;;;;;;;;;;5035107;28;20048;-62
2021/12/07 06:29:36;;;;;;;10.50;2.85;;;;;;;;;;5034783;28;20041;-70
2021/12/07 06:32:04;;;;;;;15.23;3.47;;;;;;;;;;5027535;28;20050;-64
2021/12/07 06:34:31;;;;;;;23.63;4.85;;;;;;;;;;5034164;28;20123;-64
2021/12/07 06:36:59;;;;;;;21.52;3.55;;;;;;;;;;5032704;28;20108;-63
2021/12/07 06:39:25;;;;;;;16.70;3.33;;;;;;;;;;5034412;28;20052;-63
2021/12/07 06:41:52;;;;;;;14.00;3.20;;;;;;;;;;5034211;28;20061;-63
2021/12/07 06:44:19;;;;;;;23.30;3.65;;;;;;;;;;5034169;28;20138;-62
2021/12/07 06:46:48;;;;;;;16.95;3.47;;;;;;;;;;5031233;28;20103;-62
2021/12/07 06:49:15;;;;;;;12.93;3.03;;;;;;;;;;5033507;28;20343;-62
2021/12/07 06:51:42;;;;;;;22.45;3.38;;;;;;;;;;5033872;28;20160;-67
2021/12/07 06:54:09;;;;;;;20.88;4.55;;;;;;;;;;5034604;28;20377;-63
2021/12/07 06:56:35;;;;;;;12.65;3.47;;;;;;;;;;5034335;28;20124;-65
2021/12/07 06:59:02;;;;;;;22.08;4.07;;;;;;;;;;5036423;28;20037;-66
2021/12/07 07:01:29;;;;;;;16.50;4.63;;;;;;;;;;5037772;28;20052;-63
2021/12/07 07:03:58;;;;;;;12.80;3.60;;;;;;;;;;5038479;28;20052;-66
2021/12/07 07:06:25;;;;;;;22.73;4.20;;;;;;;;;;5037480;28;20516;-69
2021/12/07 07:08:52;;;;;;;16.23;4.32;;;;;;;;;;5038201;28;20041;-63
2021/12/07 07:11:19;;;;;;;18.67;4.07;;;;;;;;;;5037906;28;20057;-63
2021/12/07 07:13:46;;;;;;;15.57;3.65;;;;;;;;;;5036605;28;20127;-71
2021/12/07 07:16:13;;;;;;;23.25;4.60;;;;;;;;;;5045769;28;20049;-68
2021/12/07 07:18:40;;;;;;;16.88;4.43;;;;;;;;;;5040091;28;20047;-63
2021/12/07 07:21:08;;;;;;;16.30;3.20;;;;;;;;;;5031408;28;20072;-64
2021/12/07 07:23:34;;;;;;;20.70;4.60;;;;;;;;;;5037013;28;20530;-65
2021/12/07 07:26:02;;;;;;;16.05;4.20;;;;;;;;;;5038245;28;20049;-64
2021/12/07 07:28:29;;;;;;;22.65;4.90;;;;;;;;;;5035005;28;20056;-68
2021/12/07 07:30:56;;;;;;;12.50;4.00;;;;;;;;;;5032272;28;20115;-66
2021/12/07 07:33:23;;;;;;;28.25;4.30;;;;;;;;;;5028261;28;20152;-61
2021/12/07 07:35:51;;;;;;;15.82;4.32;;;;;;;;;;5037215;28;20034;-65
2021/12/07 07:38:19;;;;;;;15.40;4.07;;;;;;;;;;5036732;28;20064;-65
2021/12/07 07:40:46;;;;;;;19.30;4.68;;;;;;;;;;5037301;28;20051;-64
2021/12/07 07:43:16;;;;;;;12.00;3.97;;;;;;;;;;5036932;28;20048;-64
2021/12/07 07:45:53;;;;;;;19.33;4.43;;;;;;;;;;5036842;28;20045;-61
2021/12/07 07:48:20;;;;;;;16.05;4.57;;;;;;;;;;5037837;28;20335;-66
2021/12/07 07:50:50;;;;;;;17.92;5.32;;;;;;;;;;5053229;28;20049;-65
2021/12/07 07:53:16;;;;;;;14.85;4.55;;;;;;;;;;5037893;28;20049;-65
2021/12/07 07:55:47;;;;;;;18.00;4.07;;;;;;;;;;5037995;28;20045;-61
2021/12/07 07:58:14;;;;;;;17.50;4.03;;;;;;;;;;5053193;28;20053;-64
2021/12/07 08:00:41;;;;;;;14.55;3.97;;;;;;;;;;5038082;28;20085;-64
2021/12/07 08:03:09;;;;;;;19.52;4.30;;;;;;;;;;5037704;28;20049;-63
2021/12/07 08:05:36;;;;;;;14.05;3.72;;;;;;;;;;5037667;28;20358;-65
2021/12/07 08:08:03;;;;;;;15.38;4.80;;;;;;;;;;5036579;28;20446;-65
2021/12/07 08:10:30;;;;;;;21.77;4.40;;;;;;;;;;5037160;28;20053;-66
2021/12/07 08:12:57;;;;;;;21.30;4.10;;;;;;;;;;5037554;28;20364;-65
2021/12/07 08:15:24;;;;;;;16.63;3.67;;;;;;;;;;5037535;28;20074;-66
2021/12/07 08:17:51;;;;;;;12.60;4.15;;;;;;;;;;5036312;28;20045;-64
2021/12/07 08:20:18;;;;;;;12.88;3.65;;;;;;;;;;5037266;28;20045;-63
2021/12/07 08:22:45;;;;;;;13.45;3.42;;;;;;;;;;5037393;28;20047;-64
2021/12/07 08:25:11;;;;;;;17.85;4.20;;;;;;;;;;5037019;28;20044;-64
2021/12/07 08:27:38;;;;;;;16.08;3.45;;;;;;;;;;5031890;28;20091;-65
2021/12/07 08:30:06;;;;;;;18.77;3.20;;;;;;;;;;5020513;28;20371;-63
2021/12/07 08:32:33;;;;;;;22.63;3.72;;;;;;;;;;5017383;28;20057;-65
2021/12/07 08:35:00;;;;;;;18.70;4.22;;;;;;;;;;5038117;28;20066;-64
2021/12/07 08:37:27;;;;;;;19.35;4.07;;;;;;;;;;5071214;28;20079;-64
2021/12/07 08:39:54;;;;;;;16.00;2.92;;;;;;;;;;5056516;28;20107;-65
2021/12/07 08:42:20;;;;;;;14.65;2.97;;;;;;;;;;5040707;28;20047;-65
2021/12/07 08:44:47;;;;;;;14.40;3.13;;;;;;;;;;5056996;28;20049;-65
2021/12/07 08:47:14;;;;;;;16.88;3.30;;;;;;;;;;5056889;28;20037;-63
2021/12/07 08:50:00;;;;;;;15.35;3.22;;;;;;;;;;5051367;28;20386;-64
2021/12/07 08:52:27;;;;;;;17.95;2.80;;;;;;;;;;5036498;28;20041;-64
2021/12/07 09:00:08;;;;;;;14.20;2.97;;;;;;;;;;5042720;28;20040;-64
2021/12/07 09:02:34;;;;;;;18.55;3.28;;;;;;;;;;5025169;28;20069;-64
2021/12/07 09:05:01;;;;;;;11.32;3.38;;;;;;;;;;5020289;28;20038;-63
2021/12/07 09:07:28;;;;;;;13.30;2.70;;;;;;;;;;5047157;28;20049;-62
2021/12/07 09:09:55;;;;;;;15.80;3.03;;;;;;;;;;5038338;28;20053;-63
2021/12/07 09:12:21;;;;;;;14.57;3.22;;;;;;;;;;5036543;28;20072;-63
2021/12/07 09:14:52;;;;;;;14.57;2.83;;;;;;;;;;5035203;28;20037;-63
2021/12/07 09:17:19;;;;;;;12.77;3.03;;;;;;;;;;5035035;28;20068;-63
2021/12/07 09:19:49;;;;;;;15.23;2.85;;;;;;;;;;5030214;28;20038;-63
2021/12/07 09:22:16;;;;;;;12.55;2.72;;;;;;;;;;5015668;28;20046;-61
2021/12/07 09:24:53;;;;;;;16.52;3.13;;;;;;;;;;5023481;28;20042;-65
2021/12/07 09:27:20;;;;;;;19.90;3.42;;;;;;;;;;5036187;28;20092;-64
2021/12/07 09:29:46;;;;;;;13.18;2.95;;;;;;;;;;5035648;28;20050;-64
2021/12/07 09:32:13;;;;;;;14.25;2.67;;;;;;;;;;5036160;28;20104;-63
2021/12/07 09:34:40;;;;;;;15.52;3.13;;;;;;;;;;5035821;28;20064;-64
2021/12/07 09:37:06;;;;;;;9.57;2.75;;;;;;;;;;5034477;28;20049;-63
2021/12/07 09:39:33;;;;;;;11.70;2.97;;;;;;;;;;5055230;28;20108;-65
2021/12/07 09:42:00;;;;;;;13.30;3.10;;;;;;;;;;5071219;28;20049;-63
2021/12/07 09:44:26;;;;;;;15.13;3.28;;;;;;;;;;5048053;28;20113;-64
2021/12/07 09:46:53;;;;;;;14.65;2.53;;;;;;;;;;5021005;28;20056;-63
2021/12/07 09:49:20;;;;;;;12.48;3.35;;;;;;;;;;5035782;28;20045;-62
2021/12/07 09:51:46;;;;;;;16.95;2.85;;;;;;;;;;5040512;28;20106;-62
2021/12/07 09:54:14;;;;;;;15.45;2.70;;;;;;;;;;5022968;28;20049;-64
2021/12/07 09:56:41;;;;;;;15.55;3.45;;;;;;;;;;5024523;28;20048;-62
2021/12/07 09:59:08;;;;;;;23.75;3.13;;;;;;;;;;5031147;28;20049;-64
2021/12/07 10:01:35;;;;;;;9.05;2.75;;;;;;;;;;5023785;28;20037;-65
2021/12/07 10:04:02;;;;;;;8.27;2.88;;;;;;;;;;5049746;28;20081;-66
